Time;durP1;ratioP1;P1;durP2;ratioP2;P2;SDS_P1;SDS_P2;PMS_P1;PMS_P2;Temp;Humidity;BMP_temperature;BMP_pressure;BME280_temperature;BME280_humidity;BME280_pressure;Samples;Min_cycle;Max_cycle;Signal;HPM_P1;HPM_P2
2021/04/20 00:00:09;;;;;;;15.93;9.88;;;;;;;9.60;63.87;100231.04;1759668;80;21148;-58
2021/04/20 00:02:37;;;;;;;17.10;10.00;;;;;;;9.57;64.09;100231.77;1775358;80;21171;-59
2021/04/20 00:05:12;;;;;;;14.65;9.00;;;;;;;9.58;64.19;100226.39;1773951;78;21175;-59
2021/04/20 00:07:39;;;;;;;15.20;9.20;;;;;;;9.58;64.29;100224.22;1777656;80;21206;-59
2021/04/20 00:10:11;;;;;;;16.48;10.65;;;;;;;9.58;64.43;100224.22;1771962;79;21219;-59
2021/04/20 00:12:39;;;;;;;15.48;9.15;;;;;;;9.56;64.39;100216.95;1775436;80;21178;-59
2021/04/20 00:15:10;;;;;;;16.45;10.82;;;;;;;9.51;64.08;100220.41;1795166;79;21156;-57
2021/04/20 00:17:37;;;;;;;15.40;9.35;;;;;;;9.43;64.16;100220.54;1775962;80;21602;-57
2021/04/20 00:20:08;;;;;;;17.42;9.35;;;;;;;9.35;64.12;100224.23;1756342;81;21203;-57
2021/04/20 00:22:35;;;;;;;13.88;9.75;;;;;;;9.27;64.43;100223.50;1763062;79;21199;-57
2021/04/20 00:25:04;;;;;;;15.00;9.55;;;;;;;9.21;64.76;100223.14;1789856;79;21370;-57
2021/04/20 00:27:31;;;;;;;13.75;7.90;;;;;;;9.14;64.85;100221.95;1787950;79;21136;-57
2021/04/20 00:29:59;;;;;;;15.90;8.53;;;;;;;9.02;64.89;100220.61;1787426;79;21164;-58
2021/04/20 00:32:26;;;;;;;15.43;8.73;;;;;;;8.98;64.91;100217.88;1776439;80;21200;-58
2021/04/20 00:34:54;;;;;;;13.48;9.23;;;;;;;9.05;64.76;100207.25;1791418;79;21164;-57
2021/04/20 00:37:21;;;;;;;13.90;9.20;;;;;;;9.10;64.71;100207.73;1718201;81;21206;-57
2021/04/20 00:39:50;;;;;;;16.67;10.13;;;;;;;9.14;64.58;100202.26;1793418;79;21156;-57
2021/04/20 00:42:17;;;;;;;16.20;9.98;;;;;;;9.11;64.85;100207.25;1753943;80;21155;-57
2021/04/20 00:44:45;;;;;;;15.70;10.15;;;;;;;9.10;65.05;100197.72;1794025;79;21469;-57
2021/04/20 00:47:12;;;;;;;15.75;10.93;;;;;;;9.11;65.16;100200.23;1754435;81;21242;-57
2021/04/20 00:49:40;;;;;;;13.68;9.78;;;;;;;9.10;65.19;100192.47;1778196;79;21156;-57
2021/04/20 00:52:07;;;;;;;16.62;9.83;;;;;;;9.06;65.31;100185.31;1718577;81;21214;-57
2021/04/20 00:54:35;;;;;;;14.30;9.88;;;;;;;9.01;65.27;100185.29;1743756;81;21127;-57
2021/04/20 00:57:03;;;;;;;14.33;9.63;;;;;;;8.98;65.15;100186.83;1718468;81;21178;-58
2021/04/20 00:59:31;;;;;;;13.98;9.95;;;;;;;8.92;65.10;100175.03;1784005;79;21152;-57
2021/04/20 01:01:58;;;;;;;15.20;9.58;;;;;;;8.86;65.23;100175.48;1793019;79;21073;-58
2021/04/20 01:04:26;;;;;;;14.80;9.68;;;;;;;8.87;65.10;100175.86;1794644;79;21092;-58
2021/04/20 01:06:55;;;;;;;18.98;8.58;;;;;;;8.94;64.95;100177.05;1792637;79;21155;-58
2021/04/20 01:09:23;;;;;;;13.48;9.25;;;;;;;8.97;64.94;100168.12;1762654;79;21203;-58
2021/04/20 01:11:50;;;;;;;13.53;9.15;;;;;;;8.95;65.46;100165.61;1787769;79;21408;-58
2021/04/20 01:14:18;;;;;;;14.87;9.45;;;;;;;8.96;65.67;100159.88;1766745;79;21147;-58
2021/04/20 01:16:45;;;;;;;15.03;10.28;;;;;;;8.99;65.64;100153.09;1702697;79;21204;-58
2021/04/20 01:19:15;;;;;;;14.70;9.13;;;;;;;9.00;65.63;100152.97;1793358;79;21159;-58
2021/04/20 01:21:43;;;;;;;14.60;9.68;;;;;;;9.00;65.29;100154.77;1790807;79;22223;-58
2021/04/20 01:24:16;;;;;;;14.07;9.65;;;;;;;8.91;65.05;100153.70;1797255;79;21171;-58
2021/04/20 01:26:46;;;;;;;15.03;8.80;;;;;;;8.82;64.96;100152.59;1788691;79;21124;-58
2021/04/20 01:29:14;;;;;;;13.55;9.80;;;;;;;8.72;64.72;100152.94;1773436;79;21172;-58
2021/04/20 01:31:43;;;;;;;17.17;10.18;;;;;;;8.65;64.66;100154.36;1771497;79;21580;-58
2021/04/20 01:34:13;;;;;;;14.75;9.65;;;;;;;8.57;64.86;100148.36;1755558;80;21507;-58
2021/04/20 01:36:42;;;;;;;13.22;8.53;;;;;;;8.50;64.99;100145.85;1730354;80;21182;-57
2021/04/20 01:39:11;;;;;;;13.98;8.53;;;;;;;8.52;64.96;100142.18;1765719;79;21219;-58
2021/04/20 01:41:39;;;;;;;14.35;8.55;;;;;;;8.62;64.75;100140.98;1773382;80;21158;-57
2021/04/20 01:44:06;;;;;;;13.70;8.48;;;;;;;8.67;64.67;100134.91;1765992;79;21112;-58
2021/04/20 01:46:34;;;;;;;12.18;8.10;;;;;;;8.70;64.77;100137.79;1755647;80;21205;-58
2021/04/20 01:49:02;;;;;;;15.35;8.90;;;;;;;8.66;65.08;100134.57;1791461;79;21223;-58
2021/04/20 01:51:29;;;;;;;15.43;9.88;;;;;;;8.61;65.21;100134.09;1774223;80;21174;-58
2021/04/20 01:53:58;;;;;;;15.98;9.30;;;;;;;8.56;65.35;100138.84;1748695;80;21142;-58
2021/04/20 01:56:25;;;;;;;13.60;9.40;;;;;;;8.50;65.56;100136.67;1751001;80;21205;-58
2021/04/20 01:58:52;;;;;;;12.98;9.05;;;;;;;8.45;65.80;100133.56;1773711;80;21424;-58
2021/04/20 02:01:25;;;;;;;15.63;10.43;;;;;;;8.38;66.21;100130.53;1797430;77;21142;-58
2021/04/20 02:03:53;;;;;;;18.15;10.70;;;;;;;8.30;66.64;100127.64;1767656;79;21515;-59
2021/04/20 02:06:23;;;;;;;17.90;10.50;;;;;;;8.23;66.94;100121.20;1799179;78;21122;-59
2021/04/20 02:08:51;;;;;;;14.20;8.63;;;;;;;8.27;67.00;100118.70;1801750;77;21584;-58
2021/04/20 02:11:22;;;;;;;13.93;9.30;;;;;;;8.37;66.67;100113.98;1802353;77;21191;-58
2021/04/20 02:13:50;;;;;;;15.40;10.38;;;;;;;8.44;66.30;100103.04;1752115;80;21193;-59
2021/04/20 02:16:19;;;;;;;17.23;10.23;;;;;;;8.47;66.15;100104.13;1771931;78;21132;-58
2021/04/20 02:18:53;;;;;;;14.68;9.95;;;;;;;8.46;66.08;100103.78;1798703;79;21181;-59
2021/04/20 02:21:20;;;;;;;18.10;11.60;;;;;;;8.46;66.29;100107.72;1761301;80;21128;-58
2021/04/20 02:23:48;;;;;;;16.23;11.00;;;;;;;8.48;66.58;100104.50;1766620;79;21108;-58
2021/04/20 02:26:29;;;;;;;16.17;9.98;;;;;;;8.55;66.57;100108.31;1799126;79;21160;-58
2021/04/20 02:29:01;;;;;;;17.80;11.45;;;;;;;8.55;66.10;100099.14;1798031;77;21136;-59
2021/04/20 02:31:29;;;;;;;17.37;11.43;;;;;;;8.45;65.83;100096.38;1797273;79;21132;-58
2021/04/20 02:33:57;;;;;;;15.32;10.58;;;;;;;8.32;66.29;100095.14;1731897;79;21101;-58
2021/04/20 02:36:26;;;;;;;16.73;11.95;;;;;;;8.33;66.57;100093.34;1798647;78;21155;-58
2021/04/20 02:38:53;;;;;;;17.62;11.10;;;;;;;8.43;66.53;100088.28;1771887;79;21171;-58
2021/04/20 02:41:21;;;;;;;19.60;11.70;;;;;;;8.48;66.53;100090.07;1800360;77;21574;-58
2021/04/20 02:43:48;;;;;;;17.45;12.15;;;;;;;8.44;66.66;100093.41;1794331;79;21187;-58
2021/04/20 02:46:16;;;;;;;19.70;12.40;;;;;;;8.41;66.82;100092.30;1801283;77;21218;-58
2021/04/20 02:48:48;;;;;;;22.80;12.80;;;;;;;8.36;66.98;100092.63;1799568;78;21249;-58
2021/04/20 02:51:15;;;;;;;17.32;10.55;;;;;;;8.30;67.17;100097.50;1798379;79;21119;-58
2021/04/20 02:53:44;;;;;;;18.77;11.48;;;;;;;8.28;67.29;100094.99;1779639;79;21167;-59
2021/04/20 02:56:13;;;;;;;17.52;11.28;;;;;;;8.34;67.23;100094.54;1797177;79;21214;-58
2021/04/20 02:58:40;;;;;;;17.02;11.40;;;;;;;8.41;67.20;100094.09;1796262;79;21104;-58
2021/04/20 03:01:17;;;;;;;14.73;10.70;;;;;;;8.42;67.18;100090.02;1754578;79;22079;-58
2021/04/20 03:03:44;;;;;;;16.32;10.72;;;;;;;8.44;67.21;100083.38;1795689;79;21207;-58
2021/04/20 03:06:12;;;;;;;19.10;11.43;;;;;;;8.46;67.11;100085.42;1803037;77;21579;-58
2021/04/20 03:08:42;;;;;;;17.23;11.30;;;;;;;8.46;67.10;100088.05;1773586;79;21189;-58
2021/04/20 03:11:15;;;;;;;17.40;10.13;;;;;;;8.45;67.12;100087.20;1769693;78;21187;-59
2021/04/20 03:13:44;;;;;;;14.98;9.70;;;;;;;8.49;67.05;100082.55;1770210;78;23048;-59
2021/04/20 03:16:15;;;;;;;16.52;10.15;;;;;;;8.58;66.83;100089.73;1744788;79;21236;-58
2021/04/20 03:18:42;;;;;;;16.20;10.55;;;;;;;8.63;66.80;100089.38;1744919;80;21482;-58
2021/04/20 03:21:14;;;;;;;14.43;9.88;;;;;;;8.62;66.73;100088.53;1773755;78;21180;-58
2021/04/20 03:23:42;;;;;;;15.30;9.30;;;;;;;8.63;66.67;100091.52;1769850;78;21116;-58
2021/04/20 03:26:38;;;;;;;13.83;9.55;;;;;;;8.61;66.65;100085.56;1773939;78;22107;-57
2021/04/20 03:29:08;;;;;;;17.12;11.43;;;;;;;8.59;66.63;100087.93;1741974;79;21172;-58
2021/04/20 03:31:40;;;;;;;15.13;9.45;;;;;;;8.57;66.71;100086.73;1771575;78;21093;-58
2021/04/20 03:34:32;;;;;;;14.35;9.08;;;;;;;8.63;66.67;100086.77;1771934;78;21151;-58
2021/04/20 03:37:11;;;;;;;14.93;8.95;;;;;;;8.74;66.43;100079.73;1768007;78;21128;-58
2021/04/20 03:39:43;;;;;;;17.98;9.30;;;;;;;8.86;66.29;100086.27;1768185;80;21623;-58
2021/04/20 03:42:22;;;;;;;13.55;8.98;;;;;;;8.92;66.21;100087.13;1772452;79;21426;-59
2021/04/20 03:44:57;;;;;;;12.58;8.35;;;;;;;8.98;66.10;100087.11;1740108;80;21230;-58
2021/04/20 03:47:29;;;;;;;12.88;8.18;;;;;;;8.99;65.98;100084.37;1768237;78;21151;-58
2021/04/20 03:49:57;;;;;;;15.78;10.08;;;;;;;9.00;65.95;100079.98;1762038;80;21187;-58
2021/04/20 03:52:32;;;;;;;13.08;9.13;;;;;;;9.01;65.88;100074.61;1775510;78;21276;-58
2021/04/20 03:54:59;;;;;;;16.60;9.65;;;;;;;9.03;66.00;100075.80;1772272;78;21198;-58
2021/04/20 03:57:30;;;;;;;14.80;8.98;;;;;;;9.04;65.83;100076.14;1771281;78;21655;-57
2021/04/20 03:59:58;;;;;;;15.10;9.48;;;;;;;9.08;65.66;100077.10;1750856;80;21697;-57
2021/04/20 04:02:25;;;;;;;16.27;10.20;;;;;;;9.15;65.53;100085.81;1773598;78;21670;-58
2021/04/20 04:04:53;;;;;;;13.18;8.55;;;;;;;9.17;65.71;100081.27;1754147;80;21805;-59
2021/04/20 04:07:21;;;;;;;13.55;9.35;;;;;;;9.14;65.61;100075.77;1753028;80;21619;-58
2021/04/20 04:09:49;;;;;;;12.28;8.88;;;;;;;9.08;65.75;100073.16;1773112;79;21183;-58
2021/04/20 04:12:17;;;;;;;15.75;9.85;;;;;;;9.04;65.96;100073.03;1761174;80;21199;-58
2021/04/20 04:14:45;;;;;;;13.70;8.28;;;;;;;9.01;66.00;100076.38;1748096;80;21223;-58
2021/04/20 04:17:13;;;;;;;16.40;8.40;;;;;;;9.05;66.05;100069.46;1781280;78;21208;-57
2021/04/20 04:19:44;;;;;;;14.28;8.90;;;;;;;9.18;65.72;100074.59;1759576;80;21312;-58
2021/04/20 04:22:14;;;;;;;14.50;9.03;;;;;;;9.23;65.76;100072.89;1757978;79;21207;-58
2021/04/20 04:24:54;;;;;;;15.75;9.63;;;;;;;9.26;65.94;100070.03;1784783;79;21215;-58
2021/04/20 04:27:23;;;;;;;14.18;9.40;;;;;;;9.30;66.29;100075.41;1732590;81;21215;-58
2021/04/20 04:29:52;;;;;;;14.35;8.88;;;;;;;9.36;66.16;100074.07;1776705;80;21481;-58
2021/04/20 04:32:20;;;;;;;16.62;10.32;;;;;;;9.41;65.67;100074.05;1747804;79;21175;-58
2021/04/20 04:34:48;;;;;;;13.65;9.05;;;;;;;9.46;65.75;100068.44;1757761;80;21215;-58
2021/04/20 04:37:16;;;;;;;14.35;9.60;;;;;;;9.56;65.40;100064.59;1778778;78;21187;-58
2021/04/20 04:39:44;;;;;;;13.98;9.70;;;;;;;9.71;65.03;100060.72;1753770;80;21284;-58
2021/04/20 04:42:12;;;;;;;15.30;9.23;;;;;;;9.79;64.57;100064.05;1753795;80;22203;-58
2021/04/20 04:44:39;;;;;;;14.53;8.95;;;;;;;9.79;64.55;100062.23;1759983;80;21224;-58
2021/04/20 04:47:08;;;;;;;15.70;9.33;;;;;;;9.82;64.44;100058.05;1760213;81;21227;-58
2021/04/20 04:49:37;;;;;;;13.83;8.13;;;;;;;9.86;64.32;100050.75;1760030;80;21227;-58
2021/04/20 04:52:07;;;;;;;14.98;9.63;;;;;;;9.86;64.07;100051.57;1779441;79;21634;-58
2021/04/20 04:54:35;;;;;;;14.28;9.20;;;;;;;9.84;64.15;100056.12;1781534;78;21325;-58
2021/04/20 04:57:03;;;;;;;12.40;8.38;;;;;;;9.82;64.24;100050.17;1742539;80;21215;-58
2021/04/20 04:59:30;;;;;;;13.93;8.95;;;;;;;9.88;64.33;100044.05;1722034;80;21558;-58
2021/04/20 05:01:59;;;;;;;13.43;8.50;;;;;;;9.96;64.03;100042.45;1789019;78;21180;-59
2021/04/20 05:04:27;;;;;;;13.20;8.78;;;;;;;10.00;63.74;100041.71;1798047;79;21121;-58
2021/04/20 05:06:56;;;;;;;14.03;9.15;;;;;;;9.97;63.83;100040.64;1729937;79;21180;-58
2021/04/20 05:09:24;;;;;;;14.38;9.78;;;;;;;9.95;63.93;100038.63;1794178;79;21494;-58
2021/04/20 05:11:52;;;;;;;12.43;8.33;;;;;;;9.95;63.91;100038.63;1787913;79;21149;-58
2021/04/20 05:14:22;;;;;;;12.80;7.87;;;;;;;9.96;63.85;100038.51;1794251;79;21160;-64
2021/04/20 05:16:54;;;;;;;14.53;8.80;;;;;;;9.97;63.68;100043.27;1771846;79;21671;-59
2021/04/20 05:19:30;;;;;;;12.88;8.13;;;;;;;9.93;63.71;100040.08;1792655;79;21405;-58
2021/04/20 05:21:58;;;;;;;12.58;8.40;;;;;;;9.97;63.66;100043.27;1791175;79;25824;-59
2021/04/20 05:24:28;;;;;;;13.10;8.20;;;;;;;10.07;63.38;100044.20;1786706;79;21595;-58
2021/04/20 05:26:57;;;;;;;13.78;9.05;;;;;;;10.11;63.35;100040.34;1792559;78;21120;-58
2021/04/20 05:29:24;;;;;;;11.43;7.05;;;;;;;10.11;63.21;100040.34;1756729;80;21640;-59
2021/04/20 05:31:54;;;;;;;12.78;7.60;;;;;;;10.09;63.23;100042.27;1786846;79;21426;-59
2021/04/20 05:34:22;;;;;;;12.60;8.43;;;;;;;10.09;63.11;100046.22;1729796;80;21209;-59
2021/04/20 05:36:50;;;;;;;12.30;7.47;;;;;;;10.10;63.17;100047.87;1788514;79;21191;-60
2021/04/20 05:39:17;;;;;;;9.68;6.50;;;;;;;10.14;62.98;100046.67;1762246;80;21178;-58
2021/04/20 05:41:44;;;;;;;9.35;5.58;;;;;;;10.20;62.72;100044.85;1788852;78;21295;-59
2021/04/20 05:44:13;;;;;;;11.18;6.53;;;;;;;10.26;62.60;100042.66;1747660;80;21175;-59
2021/04/20 05:46:48;;;;;;;9.83;6.28;;;;;;;10.38;62.13;100042.97;1794190;78;21153;-59
2021/04/20 05:49:17;;;;;;;9.28;5.72;;;;;;;10.49;61.91;100040.27;1740850;81;21198;-59
2021/04/20 05:51:46;;;;;;;7.78;4.83;;;;;;;10.60;61.22;100036.70;1788518;79;21610;-59
2021/04/20 05:54:13;;;;;;;8.13;4.83;;;;;;;10.71;60.60;100039.25;1748830;80;21213;-62
2021/04/20 05:56:42;;;;;;;7.60;4.80;;;;;;;10.88;60.66;100036.97;1768353;79;21195;-59
2021/04/20 05:59:14;;;;;;;9.23;5.33;;;;;;;11.03;60.29;100037.41;1787615;79;21581;-57
2021/04/20 06:01:42;;;;;;;9.50;6.08;;;;;;;11.12;60.55;100034.80;1795288;78;21203;-59
2021/04/20 06:04:10;;;;;;;10.68;5.92;;;;;;;11.22;59.48;100032.69;1797841;77;21241;-59
2021/04/20 06:06:41;;;;;;;10.15;6.08;;;;;;;11.26;59.07;100024.39;1804280;79;21139;-60
2021/04/20 06:09:09;;;;;;;7.67;4.97;;;;;;;11.29;59.45;100025.41;1778291;79;21852;-61
2021/04/20 06:11:39;;;;;;;8.85;5.42;;;;;;;11.34;58.87;100025.02;1798306;77;22532;-60
2021/04/20 06:14:07;;;;;;;8.03;5.22;;;;;;;11.41;59.05;100022.66;1777042;79;21187;-62
2021/04/20 06:16:35;;;;;;;7.65;4.70;;;;;;;11.50;58.72;100025.31;1793763;79;21197;-59
2021/04/20 06:19:05;;;;;;;9.13;5.62;;;;;;;11.54;58.47;100020.59;1792616;79;21708;-59
2021/04/20 06:21:34;;;;;;;8.35;5.30;;;;;;;11.60;58.66;100020.05;1799634;79;22119;-58
2021/04/20 06:24:05;;;;;;;9.68;5.75;;;;;;;11.68;58.43;100012.29;1794148;79;21207;-59
2021/04/20 06:26:36;;;;;;;8.13;5.80;;;;;;;11.78;58.08;100010.94;1794898;79;21207;-61
2021/04/20 06:29:04;;;;;;;9.10;5.40;;;;;;;11.84;58.28;100015.66;1768606;79;21167;-58
2021/04/20 06:31:34;;;;;;;9.20;5.00;;;;;;;11.96;57.79;100007.64;1777155;79;21171;-58
2021/04/20 06:34:03;;;;;;;8.78;5.00;;;;;;;12.07;57.43;100013.59;1793150;79;22354;-59
2021/04/20 06:36:31;;;;;;;9.08;5.00;;;;;;;12.19;57.04;100006.84;1800708;77;21128;-58
2021/04/20 06:38:59;;;;;;;8.38;5.42;;;;;;;12.29;56.88;100001.52;1802505;79;21139;-59
2021/04/20 06:41:28;;;;;;;8.10;4.55;;;;;;;12.34;55.79;100001.45;1799382;79;21183;-59
2021/04/20 06:44:12;;;;;;;12.13;6.47;;;;;;;12.31;55.38;100000.42;1799944;79;21151;-59
2021/04/20 06:46:50;;;;;;;7.15;4.40;;;;;;;12.33;56.34;99996.31;1798303;79;21233;-59
2021/04/20 06:49:28;;;;;;;7.85;4.92;;;;;;;12.30;55.69;99990.00;1797482;79;21148;-59
2021/04/20 06:51:59;;;;;;;8.10;5.22;;;;;;;12.26;55.59;99998.70;1795552;77;21587;-59
2021/04/20 06:54:34;;;;;;;8.73;4.97;;;;;;;12.25;55.76;99997.02;1781164;77;21583;-59
2021/04/20 06:57:14;;;;;;;8.35;4.75;;;;;;;12.28;56.54;99990.64;1795226;77;21543;-59
2021/04/20 06:59:58;;;;;;;7.62;4.62;;;;;;;12.36;55.91;99992.08;1769746;79;21203;-61
2021/04/20 07:02:57;;;;;;;7.55;4.97;;;;;;;12.44;55.70;99987.73;1794549;77;21211;-59
2021/04/20 07:05:37;;;;;;;8.00;4.72;;;;;;;12.55;55.42;99984.07;1767442;80;21163;-59
2021/04/20 07:08:26;;;;;;;9.00;5.33;;;;;;;12.63;54.91;99986.81;1772197;78;21645;-59
2021/04/20 07:10:56;;;;;;;8.45;4.70;;;;;;;12.60;54.80;99988.92;1799175;79;21637;-57
2021/04/20 07:13:26;;;;;;;7.65;4.37;;;;;;;12.49;54.57;99989.09;1796393;78;21703;-58
2021/04/20 07:16:18;;;;;;;8.40;4.90;;;;;;;12.34;54.62;99984.77;1796363;79;21148;-57
2021/04/20 07:18:51;;;;;;;9.00;5.67;;;;;;;12.21;55.09;99983.30;1772831;79;21147;-57
2021/04/20 07:21:48;;;;;;;9.10;4.95;;;;;;;12.07;55.51;99983.77;1793168;77;21445;-59
2021/04/20 07:24:22;;;;;;;7.53;3.83;;;;;;;12.01;55.95;99985.64;1793653;79;21219;-58
2021/04/20 07:27:22;;;;;;;7.50;4.40;;;;;;;11.96;55.75;99979.46;1764876;79;21439;-56
2021/04/20 07:30:33;;;;;;;6.47;3.72;;;;;;;11.91;55.54;99983.02;1764910;80;21239;-58
2021/04/20 07:33:32;;;;;;;7.65;4.53;;;;;;;11.79;55.44;99973.58;1797078;79;21156;-60
2021/04/20 07:36:31;;;;;;;8.00;4.60;;;;;;;11.70;56.25;99976.08;1798659;77;21188;-58
2021/04/20 07:39:10;;;;;;;14.85;4.47;;;;;;;11.73;56.68;99967.53;1770810;80;21179;-59
2021/04/20 07:41:55;;;;;;;7.35;4.05;;;;;;;11.81;56.95;99968.98;1797283;79;21485;-58
2021/04/20 07:44:59;;;;;;;8.23;4.70;;;;;;;11.88;56.98;99966.98;1780078;79;21161;-59
2021/04/20 07:47:29;;;;;;;7.72;4.42;;;;;;;11.94;55.66;99957.69;1769177;79;21138;-59
2021/04/20 07:50:05;;;;;;;8.58;3.83;;;;;;;11.88;55.81;99961.70;1797508;79;21396;-59
2021/04/20 07:52:38;;;;;;;7.72;4.35;;;;;;;11.85;55.87;99958.49;1776059;80;21125;-57
2021/04/20 07:55:11;;;;;;;7.30;4.35;;;;;;;11.85;56.08;99952.75;1784960;78;21212;-58
2021/04/20 07:57:43;;;;;;;9.30;4.17;;;;;;;11.84;55.81;99954.21;1753064;79;21178;-58
2021/04/20 08:00:23;;;;;;;7.15;3.40;;;;;;;11.82;55.43;99950.89;1796295;79;21164;-57
2021/04/20 08:03:20;;;;;;;8.05;4.30;;;;;;;11.83;55.45;99947.27;1766511;79;21114;-57
2021/04/20 08:06:02;;;;;;;5.53;3.05;;;;;;;11.90;55.70;99942.61;1763945;80;21128;-58
2021/04/20 08:08:48;;;;;;;7.10;3.10;;;;;;;11.99;55.35;99948.04;1741676;79;21200;-57
2021/04/20 08:11:32;;;;;;;5.40;2.87;;;;;;;11.99;54.96;99944.91;1798603;77;21173;-57
2021/04/20 08:14:25;;;;;;;6.78;3.08;;;;;;;12.00;54.58;99945.73;1774708;80;21128;-63
2021/04/20 08:17:10;;;;;;;4.92;2.72;;;;;;;12.01;54.33;99939.49;1772021;79;21200;-66
2021/04/20 08:19:51;;;;;;;5.25;2.87;;;;;;;12.01;54.18;99940.31;1764859;78;21100;-64
2021/04/20 08:22:19;;;;;;;5.22;2.77;;;;;;;12.03;53.96;99936.22;1776722;79;22333;-64
2021/04/20 08:25:19;;;;;;;6.78;3.25;;;;;;;12.05;53.76;99933.80;1767445;78;21666;-62
2021/04/20 08:27:57;;;;;;;5.50;2.77;;;;;;;12.03;54.03;99937.05;1747579;80;21191;-60
2021/04/20 08:30:41;;;;;;;5.65;2.83;;;;;;;12.06;54.35;99938.58;1737894;80;21202;-60
2021/04/20 08:33:14;;;;;;;8.05;5.17;;;;;;;12.11;54.53;99943.43;1762257;80;21229;-59
2021/04/20 08:35:43;;;;;;;8.65;5.05;;;;;;;12.20;55.67;99938.59;1767467;78;21705;-59
2021/04/20 08:38:38;;;;;;;8.88;5.37;;;;;;;12.23;56.07;99940.45;1770352;79;21187;-60
2021/04/20 08:41:10;;;;;;;8.73;5.17;;;;;;;12.29;55.97;99939.06;1800387;77;21196;-60
2021/04/20 08:43:51;;;;;;;8.58;5.22;;;;;;;12.35;55.57;99945.55;1766688;79;21226;-57
2021/04/20 08:46:42;;;;;;;7.10;4.17;;;;;;;12.39;55.63;99945.13;1776475;79;21671;-58
2021/04/20 08:49:40;;;;;;;7.70;4.72;;;;;;;12.47;55.08;99939.60;1702011;83;21178;-58
2021/04/20 08:52:43;;;;;;;7.12;4.65;;;;;;;12.50;54.90;99944.59;1678843;83;21226;-60
2021/04/20 08:55:22;;;;;;;8.00;5.05;;;;;;;12.49;55.06;99942.45;1649610;85;21255;-59
2021/04/20 08:58:18;;;;;;;7.95;5.15;;;;;;;12.48;55.57;99940.78;1670988;84;21644;-61
2021/04/20 09:01:03;;;;;;;8.33;5.08;;;;;;;12.51;55.49;99937.85;1669977;84;21263;-60
2021/04/20 09:04:03;;;;;;;9.53;5.70;;;;;;;12.54;55.48;99928.80;1669143;84;22393;-59
2021/04/20 09:06:49;;;;;;;8.15;4.95;;;;;;;12.56;55.47;99934.78;1666410;84;21274;-59
2021/04/20 09:09:21;;;;;;;6.72;4.72;;;;;;;12.56;55.98;99934.78;1646341;85;21218;-59
2021/04/20 09:11:53;;;;;;;9.88;5.92;;;;;;;12.65;55.90;99929.92;1646262;84;21238;-59
2021/04/20 09:14:38;;;;;;;7.05;4.58;;;;;;;12.75;55.55;99930.70;1642848;85;21544;-61
2021/04/20 09:17:12;;;;;;;9.15;5.53;;;;;;;12.81;55.22;99922.20;1669254;85;22313;-58
2021/04/20 09:19:56;;;;;;;8.33;5.28;;;;;;;12.83;55.09;99927.33;1670170;84;21217;-59
2021/04/20 09:22:44;;;;;;;8.50;6.22;;;;;;;12.88;55.24;99925.07;1647561;85;21178;-58
2021/04/20 09:25:25;;;;;;;9.73;5.80;;;;;;;12.94;54.60;99919.17;1668962;84;21149;-59
2021/04/20 09:28:15;;;;;;;9.70;5.58;;;;;;;12.96;54.76;99911.10;1670381;84;21219;-61
2021/04/20 09:30:50;;;;;;;9.63;5.80;;;;;;;12.98;55.05;99904.70;1672126;84;22384;-59
2021/04/20 09:33:48;;;;;;;9.48;5.22;;;;;;;13.09;54.41;99909.42;1643166;85;21151;-58
2021/04/20 09:36:17;;;;;;;7.25;4.67;;;;;;;13.15;54.27;99903.05;1670631;84;21266;-59
2021/04/20 09:38:47;;;;;;;7.05;4.15;;;;;;;13.12;54.02;99897.23;1671697;84;21168;-59
2021/04/20 09:41:19;;;;;;;6.53;4.15;;;;;;;13.06;53.61;99892.55;1669861;84;21148;-59
2021/04/20 09:44:37;;;;;;;7.60;4.62;;;;;;;12.98;53.11;99889.36;1645447;85;21192;-60
2021/04/20 09:47:43;;;;;;;8.50;4.08;;;;;;;12.87;52.90;99887.75;1648718;82;21664;-60
2021/04/20 09:50:34;;;;;;;6.90;3.83;;;;;;;12.77;53.60;99881.71;1659631;84;21225;-58
2021/04/20 09:53:25;;;;;;;6.95;3.90;;;;;;;12.81;53.16;99865.43;1690805;84;21235;-60
2021/04/20 09:56:21;;;;;;;8.33;4.47;;;;;;;12.76;53.23;99870.33;1727864;81;21881;-61
2021/04/20 09:58:48;;;;;;;14.10;3.65;;;;;;;12.64;53.51;99874.99;1697311;82;22600;-60
2021/04/20 10:01:43;;;;;;;6.15;3.50;;;;;;;12.52;53.35;99876.16;1665926;84;21230;-60
2021/04/20 10:04:12;;;;;;;6.35;3.25;;;;;;;12.50;53.45;99873.34;1690595;83;21194;-61
2021/04/20 10:07:24;;;;;;;7.00;4.12;;;;;;;12.50;53.87;99872.02;1663481;84;21231;-61
2021/04/20 10:10:12;;;;;;;6.60;3.80;;;;;;;12.51;53.60;99873.20;1698089;82;21549;-60
2021/04/20 10:14:17;;;;;;;7.53;3.87;;;;;;;12.59;52.66;99868.48;1879857;74;22501;-59
2021/04/20 10:17:05;;;;;;;7.17;3.95;;;;;;;12.61;51.97;99866.55;1737161;80;21211;-64
2021/04/20 10:20:09;;;;;;;7.12;4.35;;;;;;;12.67;52.10;99864.61;1810868;77;21171;-59
2021/04/20 10:22:42;;;;;;;7.90;4.08;;;;;;;12.76;52.60;99857.13;1832534;77;21168;-59
2021/04/20 10:25:33;;;;;;;6.28;3.55;;;;;;;12.85;51.21;99858.53;1814251;78;21166;-59
2021/04/20 10:28:12;;;;;;;5.85;3.30;;;;;;;12.88;51.53;99852.45;1836161;76;21112;-59
2021/04/20 10:30:42;;;;;;;6.05;3.52;;;;;;;12.96;50.74;99855.64;1840989;77;21167;-58
2021/04/20 10:33:12;;;;;;;5.50;2.60;;;;;;;12.96;49.24;99857.81;1843749;77;22111;-59
2021/04/20 10:35:39;;;;;;;5.87;2.80;;;;;;;12.93;48.63;99850.69;1833839;77;21201;-59
2021/04/20 10:38:15;;;;;;;5.80;2.92;;;;;;;12.91;48.19;99848.67;1841503;77;21468;-60
2021/04/20 10:40:45;;;;;;;6.03;3.30;;;;;;;12.90;48.59;99851.81;1776955;78;21197;-58
2021/04/20 10:43:18;;;;;;;6.40;3.20;;;;;;;12.92;48.78;99851.66;1801269;77;21159;-59
2021/04/20 10:45:46;;;;;;;5.85;2.83;;;;;;;12.90;48.58;99851.81;1766050;80;21199;-59
2021/04/20 10:48:23;;;;;;;6.10;3.22;;;;;;;12.86;49.01;99857.06;1796992;78;21528;-60
2021/04/20 10:50:53;;;;;;;6.03;3.27;;;;;;;12.86;49.26;99853.58;1742934;80;21208;-59
2021/04/20 10:53:23;;;;;;;9.15;4.05;;;;;;;12.88;49.14;99852.92;1783595;78;21230;-59
2021/04/20 10:55:58;;;;;;;6.95;4.05;;;;;;;12.89;49.55;99848.81;1798467;79;21199;-58
2021/04/20 10:58:26;;;;;;;7.70;3.90;;;;;;;12.86;49.67;99848.30;1791787;78;21191;-58
2021/04/20 11:00:55;;;;;;;6.33;3.37;;;;;;;12.80;49.96;99847.09;1751643;79;21240;-59
2021/04/20 11:03:28;;;;;;;6.25;3.33;;;;;;;12.74;49.51;99845.90;1782954;78;21173;-59
2021/04/20 11:05:55;;;;;;;6.65;3.70;;;;;;;12.73;50.19;99852.64;1773574;78;21448;-59
2021/04/20 11:08:39;;;;;;;7.53;3.72;;;;;;;12.72;50.59;99853.11;1801023;78;21174;-58
2021/04/20 11:11:19;;;;;;;6.87;3.98;;;;;;;12.78;49.82;99851.70;1811529;77;21356;-58
2021/04/20 11:13:48;;;;;;;5.50;3.30;;;;;;;12.79;49.00;99848.92;1815350;76;21455;-58
2021/04/20 11:16:32;;;;;;;5.50;3.47;;;;;;;12.83;49.81;99849.44;1785115;79;21568;-58
2021/04/20 11:19:05;;;;;;;6.87;3.60;;;;;;;12.85;50.07;99848.80;1753330;79;21210;-57
2021/04/20 11:21:40;;;;;;;6.28;2.85;;;;;;;12.92;49.91;99846.38;1806077;77;21665;-58
2021/04/20 11:24:20;;;;;;;5.92;2.72;;;;;;;12.99;49.85;99842.14;1814279;77;21250;-57
2021/04/20 11:30:14;;;;;;;5.25;2.70;;;;;;;13.08;48.44;99832.00;1706566;82;22250;-58
2021/04/20 11:32:49;;;;;;;6.55;3.58;;;;;;;13.09;48.43;99828.36;1741679;82;21248;-59
2021/04/20 11:35:19;;;;;;;6.28;3.58;;;;;;;13.09;49.24;99826.22;1692761;82;21194;-60
2021/04/20 11:37:47;;;;;;;6.45;3.25;;;;;;;13.06;49.78;99827.34;1721035;81;21272;-60
2021/04/20 11:40:25;;;;;;;5.85;2.83;;;;;;;13.06;50.04;99829.98;1727169;81;21203;-60
2021/04/20 11:42:54;;;;;;;8.18;3.35;;;;;;;13.14;49.12;99817.34;1729133;81;21202;-59
2021/04/20 11:45:24;;;;;;;8.45;3.33;;;;;;;13.18;49.26;99823.50;1720793;82;21213;-59
2021/04/20 11:47:58;;;;;;;6.17;3.52;;;;;;;13.25;48.98;99821.57;1686552;84;21276;-59
2021/04/20 11:50:30;;;;;;;6.05;3.37;;;;;;;13.28;49.02;99818.59;1720482;82;21603;-60
2021/04/20 11:53:06;;;;;;;5.37;3.02;;;;;;;13.34;49.36;99815.38;1730588;81;21179;-58
2021/04/20 11:55:44;;;;;;;6.30;3.35;;;;;;;13.40;49.02;99809.95;1724598;81;21236;-59
2021/04/20 11:58:21;;;;;;;5.97;3.05;;;;;;;13.43;48.88;99802.57;1716169;81;21246;-57
2021/04/20 12:00:49;;;;;;;5.87;3.20;;;;;;;13.42;48.76;99805.37;1737774;81;21167;-57
2021/04/20 12:03:19;;;;;;;5.55;2.75;;;;;;;13.47;48.98;99793.84;1742867;81;22183;-56